Pagina principale
METAR-TAF:

METAR-TAF

Aeroporti :

Aeroporto di Dakar-Léopold Sedar Senghor

Dakar, Senegal

latitudine: 14-44N, longitudine: 017-30W, altezza: 27 m

Osservazione

Il bollettino è stato emesso 41 minuti fa, alle 17:00 UTC
Vento 8 kt da ovest/nord-ovest
Temperature 29°C
Umidità 66%
Pressione 1015 hPa
Visibilità 10 km o più
Poco nuvoloso ad un'altezza di 1500 ft

METAR: GOOY 141700Z 30008KT 9999 FEW015 29/22 Q1015

Ora: 17:41 (17:41 UTC)

Previsione

Il bollettino è stato emesso 11 minuti fa, alle 17:30 UTC
Previsione valida dal 14 alle 18 UTC al 15 alle 24 UTC
Vento 8 kt da nord-ovest
Visibilità 10 km o più
Nubi sparse ad un'altezza di 1300 ft

TAF: GOOY 141730Z 1418/1524 31008KT 9999 SCT013

Osservazioni e previsioni meteorologiche di più di 4000 aeroporti (messaggi METAR e TAF).

Le stazioni disponibili sono rappresentate dai dischi gialli e rossi sulla carta.

Puntare il mouse per vedere il nome della stazione.

Clicca sopra per visualizzare le osservazioni e previsioni meteorologiche.

Per cambiare la mappa : fare clic sui pulsanti verdi con una croce nera per ingrandire, il pulsante verde con un trattino per diminuire, o sulla freccia verde per le mappe adiacenti.


METAR-TAF: